Time;durP1;ratioP1;P1;durP2;ratioP2;P2;SDS_P1;SDS_P2;PMS_P1;PMS_P2;Temp;Humidity;BMP_temperature;BMP_pressure;BME280_temperature;BME280_humidity;BME280_pressure;Samples;Min_cycle;Max_cycle;Signal;HPM_P1;HPM_P2
2022/08/19 00:00:25;;;;;;;16.65;12.82;;;14.90;99.90;;;;;;5104699;28;20056;-66
2022/08/19 00:02:51;;;;;;;11.70;10.50;;;14.80;99.90;;;;;;5098551;28;20040;-65
2022/08/19 00:05:19;;;;;;;9.02;6.50;;;14.80;99.90;;;;;;5103751;28;20133;-66
2022/08/19 00:07:45;;;;;;;11.13;9.23;;;14.80;99.90;;;;;;5103280;28;20504;-66
2022/08/19 00:10:14;;;;;;;15.50;13.25;;;14.80;99.90;;;;;;5103022;28;20056;-66
2022/08/19 00:12:40;;;;;;;15.40;11.38;;;14.60;99.90;;;;;;5103017;28;20126;-66
2022/08/19 00:15:11;;;;;;;39.85;10.93;;;14.60;99.90;;;;;;5104499;28;20048;-66
2022/08/19 00:17:38;;;;;;;22.08;17.48;;;14.60;99.90;;;;;;5099982;28;20092;-66
2022/08/19 00:20:05;;;;;;;25.45;20.20;;;14.60;99.90;;;;;;5102373;28;20056;-66
2022/08/19 00:22:31;;;;;;;25.10;20.88;;;14.50;99.90;;;;;;5101416;28;20048;-66
2022/08/19 00:24:56;;;;;;;18.58;15.68;;;14.40;99.90;;;;;;5102840;28;20044;-66
2022/08/19 00:27:22;;;;;;;13.77;12.35;;;14.40;99.90;;;;;;5104725;28;20036;-66
2022/08/19 00:29:48;;;;;;;29.45;21.25;;;14.40;99.90;;;;;;5096066;28;20763;-66
2022/08/19 00:32:14;;;;;;;26.75;22.02;;;14.40;99.90;;;;;;5103685;28;20051;-66
2022/08/19 00:34:39;;;;;;;28.77;12.65;;;14.30;99.90;;;;;;5113525;28;20108;-66
2022/08/19 00:37:05;;;;;;;44.75;21.25;;;14.30;99.90;;;;;;5118867;28;20056;-66
2022/08/19 00:39:31;;;;;;;18.08;15.02;;;14.30;99.90;;;;;;5099793;28;20051;-66
2022/08/19 00:41:57;;;;;;;17.48;15.43;;;14.30;99.90;;;;;;5099257;28;20055;-66
2022/08/19 00:44:27;;;;;;;13.15;11.10;;;14.20;99.90;;;;;;5083020;28;20048;-66
2022/08/19 00:46:55;;;;;;;27.23;11.25;;;14.30;99.90;;;;;;5098368;28;20060;-66
2022/08/19 00:49:27;;;;;;;24.00;12.18;;;14.40;99.90;;;;;;5102722;28;20496;-66
2022/08/19 00:51:59;;;;;;;22.83;17.17;;;14.30;99.90;;;;;;5104285;28;20066;-66
2022/08/19 00:54:24;;;;;;;20.70;18.25;;;14.20;99.90;;;;;;5103252;28;20500;-66
2022/08/19 00:56:51;;;;;;;20.83;17.10;;;14.10;99.90;;;;;;5101320;28;20112;-66
2022/08/19 00:59:18;;;;;;;19.17;15.23;;;14.00;99.90;;;;;;5102534;28;20055;-66
2022/08/19 01:01:45;;;;;;;17.67;13.70;;;14.00;99.90;;;;;;5096396;28;20133;-65
2022/08/19 01:04:11;;;;;;;16.42;14.60;;;13.80;99.90;;;;;;5101136;28;20036;-66
2022/08/19 01:06:39;;;;;;;17.33;14.68;;;13.80;99.90;;;;;;5101519;28;20059;-66
2022/08/19 01:09:05;;;;;;;9.23;7.65;;;13.70;99.90;;;;;;5104068;28;20062;-65
2022/08/19 01:11:35;;;;;;;7.15;6.45;;;13.80;99.90;;;;;;5104970;28;20079;-66
2022/08/19 01:14:00;;;;;;;8.00;7.20;;;13.90;99.90;;;;;;5103173;28;20055;-66
2022/08/19 01:16:28;;;;;;;11.02;7.88;;;13.90;99.90;;;;;;5108261;28;20051;-66
2022/08/19 01:18:56;;;;;;;7.18;6.28;;;13.90;99.90;;;;;;5106922;28;20050;-66
2022/08/19 01:21:47;;;;;;;36.65;11.35;;;13.80;99.90;;;;;;5107652;28;20043;-66
2022/08/19 01:24:13;;;;;;;16.05;4.82;;;13.70;99.90;;;;;;5104695;28;20055;-66
2022/08/19 01:26:42;;;;;;;37.10;7.07;;;13.60;99.90;;;;;;5106274;28;20076;-66
2022/08/19 01:29:09;;;;;;;58.45;9.13;;;13.50;99.90;;;;;;5082879;28;20040;-66
2022/08/19 01:31:36;;;;;;;31.20;11.82;;;13.50;99.90;;;;;;5099364;28;20051;-66
2022/08/19 01:34:03;;;;;;;14.20;10.68;;;13.60;99.90;;;;;;5107321;28;20097;-66
2022/08/19 01:36:38;;;;;;;18.05;9.43;;;13.60;99.90;;;;;;5105687;28;20151;-66
2022/08/19 01:39:08;;;;;;;15.27;9.27;;;13.60;99.90;;;;;;5104095;28;20056;-66
2022/08/19 01:41:35;;;;;;;40.78;12.50;;;13.60;99.90;;;;;;5099642;28;20488;-66
2022/08/19 01:44:03;;;;;;;27.27;13.88;;;13.50;99.90;;;;;;5088241;28;20047;-66
2022/08/19 01:46:30;;;;;;;20.25;10.90;;;13.50;99.90;;;;;;5106198;28;20556;-65
2022/08/19 01:48:56;;;;;;;38.42;13.38;;;13.60;99.90;;;;;;5105518;28;20044;-66
2022/08/19 01:51:22;;;;;;;89.10;12.02;;;13.60;99.90;;;;;;5106583;28;20047;-66
2022/08/19 01:53:49;;;;;;;83.25;12.70;;;13.60;99.90;;;;;;5105099;28;20048;-65
2022/08/19 01:56:16;;;;;;;11.43;8.98;;;13.60;99.90;;;;;;5105088;28;20044;-66
2022/08/19 01:58:49;;;;;;;8.00;7.15;;;13.50;99.90;;;;;;5106659;28;20051;-65
2022/08/19 02:01:15;;;;;;;9.65;6.50;;;13.60;99.90;;;;;;5100619;28;20028;-66
2022/08/19 02:03:41;;;;;;;12.45;9.05;;;13.50;99.90;;;;;;5106481;28;20047;-66
2022/08/19 02:06:07;;;;;;;12.57;9.05;;;13.50;99.90;;;;;;5106474;28;20043;-66
2022/08/19 02:08:35;;;;;;;15.77;12.38;;;13.50;99.90;;;;;;5106358;28;20032;-66
2022/08/19 02:11:02;;;;;;;13.70;9.23;;;13.40;99.90;;;;;;5104995;28;20491;-66
2022/08/19 02:13:28;;;;;;;10.75;9.18;;;13.40;99.90;;;;;;5101260;28;20049;-66
2022/08/19 02:15:54;;;;;;;11.63;9.10;;;13.40;99.90;;;;;;5103039;28;20052;-66
2022/08/19 02:18:20;;;;;;;9.45;8.15;;;13.40;99.90;;;;;;5104629;28;20044;-66
2022/08/19 02:20:47;;;;;;;13.05;9.13;;;13.30;99.90;;;;;;5104935;28;20108;-66
2022/08/19 02:23:14;;;;;;;11.50;10.27;;;13.20;99.90;;;;;;5102682;28;20096;-66
2022/08/19 02:25:40;;;;;;;14.10;11.35;;;13.20;99.90;;;;;;5106717;28;20044;-66
2022/08/19 02:28:06;;;;;;;7.93;6.82;;;13.10;99.90;;;;;;5104156;28;20044;-66
2022/08/19 02:30:32;;;;;;;7.40;6.70;;;13.10;99.90;;;;;;5106290;28;20104;-66
2022/08/19 02:32:57;;;;;;;5.15;4.65;;;13.20;99.90;;;;;;5100005;28;20037;-66
2022/08/19 02:35:23;;;;;;;11.77;10.07;;;13.10;99.90;;;;;;5104789;28;20052;-66
2022/08/19 02:40:35;;;;;;;9.23;7.05;;;13.10;99.90;;;;;;5104572;28;20067;-65
2022/08/19 02:43:02;;;;;;;8.55;6.10;;;13.10;99.90;;;;;;5105908;28;20126;-66
2022/08/19 02:45:33;;;;;;;15.07;10.65;;;13.10;99.90;;;;;;5104369;28;20038;-66
2022/08/19 02:47:59;;;;;;;13.15;10.43;;;13.20;99.90;;;;;;5105956;28;20060;-66
2022/08/19 02:50:24;;;;;;;39.85;11.45;;;13.20;99.90;;;;;;5106167;28;20051;-66
2022/08/19 02:52:50;;;;;;;93.28;18.00;;;13.10;99.90;;;;;;5105206;28;20032;-66
2022/08/19 02:55:15;;;;;;;60.13;15.75;;;13.00;99.90;;;;;;5098304;28;20083;-66
2022/08/19 02:57:41;;;;;;;15.75;10.85;;;12.90;99.90;;;;;;5105598;28;20047;-66
2022/08/19 03:00:09;;;;;;;54.63;12.40;;;13.00;99.90;;;;;;5105488;28;20066;-66
2022/08/19 03:02:35;;;;;;;46.70;12.15;;;13.10;99.90;;;;;;5097569;28;20052;-66
2022/08/19 03:05:03;;;;;;;42.85;11.35;;;13.10;99.90;;;;;;5105717;28;20047;-66
2022/08/19 03:07:28;;;;;;;36.55;11.88;;;13.10;99.90;;;;;;5104494;28;20039;-66
2022/08/19 03:09:54;;;;;;;46.00;12.15;;;13.20;99.90;;;;;;5103796;28;20483;-66
2022/08/19 03:12:20;;;;;;;34.83;11.48;;;13.10;99.90;;;;;;5105153;28;20407;-66
2022/08/19 03:14:46;;;;;;;51.65;11.07;;;13.00;99.90;;;;;;5105071;28;20040;-66
2022/08/19 03:17:12;;;;;;;16.90;8.98;;;13.00;99.90;;;;;;5104341;28;20043;-65
2022/08/19 03:19:38;;;;;;;33.17;9.43;;;12.90;99.90;;;;;;5102795;28;20040;-66
2022/08/19 03:22:04;;;;;;;23.15;11.13;;;12.90;99.90;;;;;;5105179;28;20495;-66
2022/08/19 03:24:31;;;;;;;41.17;10.10;;;12.90;99.90;;;;;;5098222;28;20044;-66
2022/08/19 03:26:58;;;;;;;77.20;8.93;;;13.00;99.90;;;;;;5102376;28;20048;-66
2022/08/19 03:29:26;;;;;;;36.03;9.27;;;13.00;99.90;;;;;;5099911;28;20052;-66
2022/08/19 03:31:52;;;;;;;24.60;8.65;;;13.10;99.90;;;;;;5104066;28;20052;-66
2022/08/19 03:34:26;;;;;;;16.67;8.18;;;13.00;99.90;;;;;;5103719;28;20064;-66
2022/08/19 03:36:56;;;;;;;15.25;6.80;;;13.10;99.90;;;;;;5104597;28;20059;-66
2022/08/19 03:39:23;;;;;;;7.25;4.35;;;13.00;99.90;;;;;;5102379;28;20040;-66
2022/08/19 03:41:50;;;;;;;17.88;3.97;;;13.10;99.90;;;;;;5103634;28;20043;-65
2022/08/19 03:44:21;;;;;;;13.52;4.75;;;13.10;99.90;;;;;;5100562;28;20040;-66
2022/08/19 03:46:50;;;;;;;4.55;3.83;;;13.10;99.90;;;;;;5098268;28;20040;-65
2022/08/19 03:49:17;;;;;;;9.90;4.90;;;13.10;99.90;;;;;;5105057;28;20060;-66
2022/08/19 03:51:43;;;;;;;8.15;5.05;;;13.10;99.90;;;;;;5097170;28;20037;-66
2022/08/19 03:54:12;;;;;;;9.45;5.57;;;12.90;99.90;;;;;;5101861;28;20036;-66
2022/08/19 03:56:39;;;;;;;9.77;5.75;;;12.80;99.90;;;;;;5104845;28;20047;-66
2022/08/19 03:59:08;;;;;;;14.05;6.80;;;12.70;99.90;;;;;;5103775;28;20392;-65
2022/08/19 04:01:35;;;;;;;17.20;7.75;;;12.70;99.90;;;;;;5097575;28;20090;-66
2022/08/19 04:04:01;;;;;;;13.65;7.15;;;12.70;99.90;;;;;;5103508;28;20070;-66
2022/08/19 04:06:29;;;;;;;15.50;6.95;;;12.80;99.90;;;;;;5105340;28;20127;-66
2022/08/19 04:08:58;;;;;;;19.90;8.45;;;12.80;99.90;;;;;;5102801;28;20048;-66
2022/08/19 04:11:31;;;;;;;19.77;8.93;;;12.80;99.90;;;;;;5100106;28;20059;-67
2022/08/19 04:13:56;;;;;;;20.05;7.85;;;12.90;99.90;;;;;;5104665;28;20051;-67
2022/08/19 04:16:24;;;;;;;38.95;7.90;;;13.00;99.90;;;;;;5102850;28;20048;-67
2022/08/19 04:18:50;;;;;;;49.90;7.78;;;12.90;99.90;;;;;;5102218;28;20090;-67
2022/08/19 04:21:18;;;;;;;17.13;6.80;;;12.80;99.90;;;;;;5104233;28;20071;-66
2022/08/19 04:23:45;;;;;;;21.20;7.50;;;12.80;99.90;;;;;;5102025;28;20453;-67
2022/08/19 04:26:16;;;;;;;26.05;8.95;;;12.80;99.90;;;;;;5103391;28;20396;-67
2022/08/19 04:28:43;;;;;;;58.63;9.45;;;12.80;99.90;;;;;;5101749;28;20135;-66
2022/08/19 04:31:15;;;;;;;28.95;9.00;;;12.80;99.90;;;;;;5104184;28;20052;-67
2022/08/19 04:33:41;;;;;;;21.65;8.07;;;12.80;99.90;;;;;;5105193;28;20043;-66
2022/08/19 04:36:07;;;;;;;20.33;8.13;;;12.90;99.90;;;;;;5103739;28;20085;-67
2022/08/19 04:38:33;;;;;;;14.30;8.75;;;12.80;99.90;;;;;;5104694;28;20060;-67
2022/08/19 04:43:48;;;;;;;32.33;8.77;;;12.80;99.90;;;;;;5097034;28;20059;-67
2022/08/19 04:46:14;;;;;;;32.22;8.60;;;12.80;99.90;;;;;;5106172;28;20063;-66
2022/08/19 04:48:40;;;;;;;50.05;8.60;;;12.80;99.90;;;;;;5107370;28;20484;-66
2022/08/19 04:51:09;;;;;;;36.50;9.07;;;12.80;99.90;;;;;;5105571;28;20050;-67
2022/08/19 04:53:37;;;;;;;54.63;7.20;;;12.70;99.90;;;;;;5101868;28;20044;-66
2022/08/19 04:56:12;;;;;;;40.67;7.22;;;12.80;99.90;;;;;;5108266;28;20043;-66
2022/08/19 04:58:42;;;;;;;79.18;7.68;;;12.90;99.90;;;;;;5107306;28;20040;-66
2022/08/19 05:01:10;;;;;;;90.25;8.38;;;13.00;99.90;;;;;;5106766;28;20047;-66
2022/08/19 05:03:36;;;;;;;87.13;8.30;;;13.00;99.90;;;;;;5106583;28;20102;-66
2022/08/19 05:06:10;;;;;;;86.15;8.38;;;13.00;99.90;;;;;;5108250;28;20040;-66
2022/08/19 05:08:40;;;;;;;23.60;6.78;;;13.00;99.90;;;;;;5105778;28;20051;-66
2022/08/19 05:11:16;;;;;;;64.78;7.65;;;13.00;99.90;;;;;;5106182;28;20400;-66
2022/08/19 05:13:44;;;;;;;30.92;6.50;;;13.00;99.90;;;;;;5106715;28;20056;-66
2022/08/19 05:16:11;;;;;;;16.40;6.55;;;13.10;99.90;;;;;;5106555;28;20103;-66
2022/08/19 05:24:08;;;;;;;11.43;6.50;;;13.40;99.90;;;;;;5107468;28;20071;-66
2022/08/19 05:26:38;;;;;;;8.27;5.90;;;13.40;99.90;;;;;;5104927;28;20515;-66
2022/08/19 05:29:04;;;;;;;8.98;6.00;;;13.40;99.90;;;;;;5117080;28;20051;-66
2022/08/19 05:31:30;;;;;;;12.55;8.05;;;13.50;99.90;;;;;;5107051;28;20056;-67
2022/08/19 05:33:58;;;;;;;13.60;9.60;;;13.60;99.90;;;;;;5105314;28;20044;-66
2022/08/19 05:36:25;;;;;;;13.88;9.88;;;13.60;99.90;;;;;;5106625;28;20053;-67
2022/08/19 05:38:52;;;;;;;17.08;11.43;;;13.70;99.90;;;;;;5105901;28;20119;-67
2022/08/19 05:41:18;;;;;;;20.92;13.65;;;13.80;99.90;;;;;;5106345;28;20051;-66
2022/08/19 05:43:44;;;;;;;27.05;16.35;;;13.90;99.90;;;;;;5106523;28;20052;-66
2022/08/19 05:46:19;;;;;;;29.88;17.05;;;14.10;99.90;;;;;;5106979;28;20136;-66
2022/08/19 05:48:45;;;;;;;27.88;17.23;;;14.20;99.90;;;;;;5103874;28;20077;-66
2022/08/19 05:51:11;;;;;;;28.00;17.38;;;14.30;99.90;;;;;;5071722;28;20056;-66
2022/08/19 05:53:37;;;;;;;28.70;17.00;;;14.50;99.90;;;;;;5105796;28;20036;-66
2022/08/19 05:56:05;;;;;;;32.40;17.67;;;14.70;99.90;;;;;;5104237;28;20104;-66
2022/08/19 05:58:32;;;;;;;30.38;18.10;;;14.80;99.90;;;;;;5086882;28;20051;-65
2022/08/19 06:01:04;;;;;;;30.55;18.00;;;14.90;99.90;;;;;;5105774;28;20047;-66
2022/08/19 06:03:30;;;;;;;30.08;18.70;;;14.90;99.90;;;;;;5072430;28;20056;-66
2022/08/19 06:05:59;;;;;;;31.90;19.58;;;15.00;99.90;;;;;;5087598;28;20051;-65
2022/08/19 06:08:25;;;;;;;32.97;19.15;;;15.20;99.90;;;;;;5099003;28;20048;-65
2022/08/19 06:10:50;;;;;;;31.52;18.98;;;15.30;99.90;;;;;;5071507;28;20466;-66
2022/08/19 06:13:17;;;;;;;32.63;18.50;;;15.30;99.90;;;;;;5096869;28;20067;-66
2022/08/19 06:15:44;;;;;;;33.72;21.05;;;15.40;99.90;;;;;;5088562;28;20051;-66
2022/08/19 06:18:09;;;;;;;39.60;21.83;;;15.50;99.90;;;;;;5096541;28;20075;-66
2022/08/19 06:20:35;;;;;;;40.85;21.80;;;15.70;99.90;;;;;;5069833;28;20055;-66
2022/08/19 06:23:01;;;;;;;36.92;20.67;;;15.80;99.90;;;;;;5079965;28;20843;-66
2022/08/19 06:25:26;;;;;;;35.90;20.95;;;15.90;99.90;;;;;;5090122;28;20040;-65
2022/08/19 06:27:53;;;;;;;33.88;19.60;;;16.00;99.90;;;;;;5098265;28;20072;-65
2022/08/19 06:30:19;;;;;;;37.47;21.90;;;16.10;99.90;;;;;;5086483;28;20067;-66
2022/08/19 06:32:44;;;;;;;35.13;20.40;;;16.20;99.90;;;;;;5102435;28;20077;-65
2022/08/19 06:35:11;;;;;;;30.42;20.02;;;16.30;99.90;;;;;;5088550;28;20048;-66
2022/08/19 06:37:37;;;;;;;32.63;18.98;;;16.30;99.90;;;;;;5073414;28;20064;-65
2022/08/19 06:40:03;;;;;;;31.02;18.38;;;16.30;99.90;;;;;;5082519;28;20547;-65
2022/08/19 06:42:30;;;;;;;26.88;18.05;;;16.40;99.90;;;;;;5088972;28;20125;-65
2022/08/19 06:44:57;;;;;;;27.50;17.73;;;16.40;99.90;;;;;;5072683;28;20075;-65
2022/08/19 06:47:23;;;;;;;27.30;18.83;;;16.50;99.90;;;;;;5095976;28;20090;-65
2022/08/19 06:49:49;;;;;;;30.95;18.38;;;16.60;99.90;;;;;;5061714;28;20048;-67
2022/08/19 06:52:15;;;;;;;26.33;17.77;;;16.70;99.90;;;;;;5080287;28;20055;-66
2022/08/19 06:54:42;;;;;;;26.23;17.75;;;16.90;99.90;;;;;;5087020;28;20047;-65
2022/08/19 06:57:13;;;;;;;26.35;17.45;;;16.90;99.90;;;;;;5097916;28;20039;-65
2022/08/19 06:59:39;;;;;;;25.60;16.45;;;17.00;99.90;;;;;;5086906;28;20127;-65
2022/08/19 07:02:06;;;;;;;23.50;16.50;;;17.00;99.90;;;;;;5093021;28;20052;-64
2022/08/19 07:04:34;;;;;;;24.13;16.63;;;17.10;99.90;;;;;;5083625;28;20130;-65
2022/08/19 07:07:08;;;;;;;23.13;17.50;;;17.30;99.90;;;;;;5097120;28;20039;-64
2022/08/19 07:09:37;;;;;;;23.38;15.65;;;17.40;99.90;;;;;;5089990;28;20469;-64
2022/08/19 07:12:03;;;;;;;26.95;17.30;;;17.40;99.90;;;;;;5109203;28;20108;-64
2022/08/19 07:14:29;;;;;;;23.58;16.30;;;17.50;99.90;;;;;;5089248;28;20116;-64
2022/08/19 07:16:56;;;;;;;25.85;17.65;;;17.60;99.90;;;;;;5094614;28;20683;-65
2022/08/19 07:19:26;;;;;;;23.05;16.88;;;17.70;99.90;;;;;;5090140;28;20043;-65
2022/08/19 07:21:53;;;;;;;;;;;17.90;99.90;;;;;;5108779;28;20059;-65
2022/08/19 07:24:23;;;;;;;21.33;16.42;;;17.90;99.90;;;;;;5084458;28;19928;-65
2022/08/19 07:26:48;;;;;;;23.58;15.60;;;18.00;99.90;;;;;;5093695;28;20102;-65
2022/08/19 07:29:14;;;;;;;21.27;16.17;;;18.10;99.90;;;;;;5098006;28;20044;-64
2022/08/19 07:31:40;;;;;;;21.65;16.00;;;18.30;99.90;;;;;;5083232;28;20064;-65
2022/08/19 07:34:08;;;;;;;27.08;16.02;;;18.50;99.90;;;;;;5092016;28;20044;-65
2022/08/19 07:36:37;;;;;;;21.90;14.55;;;18.50;99.90;;;;;;5082794;28;20586;-65
2022/08/19 07:39:09;;;;;;;20.98;15.90;;;18.70;99.90;;;;;;5072209;28;20059;-65
2022/08/19 07:41:36;;;;;;;20.90;15.10;;;18.90;99.90;;;;;;5089524;28;20143;-68
2022/08/19 07:44:05;;;;;;;19.23;15.63;;;19.00;99.90;;;;;;5100482;28;20044;-65
2022/08/19 07:46:31;;;;;;;22.08;15.40;;;19.10;99.90;;;;;;5076725;28;20936;-65
2022/08/19 07:48:57;;;;;;;21.38;16.02;;;19.20;99.90;;;;;;5090195;28;20104;-65
2022/08/19 07:51:24;;;;;;;20.17;15.05;;;19.30;99.90;;;;;;5055356;28;20056;-65
2022/08/19 07:53:50;;;;;;;19.38;15.63;;;19.30;99.90;;;;;;5088969;28;20111;-64
2022/08/19 07:56:18;;;;;;;16.27;12.18;;;19.40;99.90;;;;;;5062852;28;20219;-64
2022/08/19 07:58:46;;;;;;;23.17;16.73;;;19.50;99.90;;;;;;5091127;28;20378;-64
2022/08/19 08:01:16;;;;;;;20.52;15.57;;;19.50;99.90;;;;;;5099237;28;20667;-66
2022/08/19 08:09:12;;;;;;;19.67;15.05;;;19.80;99.90;;;;;;5095605;28;20109;-66
2022/08/19 08:11:48;;;;;;;23.23;16.55;;;19.90;99.90;;;;;;5084432;28;20048;-65
2022/08/19 08:14:19;;;;;;;15.90;13.63;;;20.00;99.90;;;;;;5094416;28;20048;-65
2022/08/19 08:16:45;;;;;;;18.65;14.93;;;20.10;99.90;;;;;;5069752;28;20089;-65
2022/08/19 08:19:14;;;;;;;20.30;14.75;;;20.20;99.90;;;;;;5096071;28;20044;-65
2022/08/19 08:21:40;;;;;;;22.30;15.73;;;20.30;99.90;;;;;;5069121;28;20055;-65
2022/08/19 08:24:06;;;;;;;20.10;15.27;;;20.40;99.90;;;;;;5100169;28;20040;-65
2022/08/19 08:26:32;;;;;;;20.38;14.73;;;20.50;99.90;;;;;;5075130;28;20103;-65
2022/08/19 08:28:58;;;;;;;21.15;15.88;;;20.50;99.90;;;;;;5080040;28;20602;-66
2022/08/19 08:31:23;;;;;;;18.35;14.27;;;20.70;99.90;;;;;;5088420;28;20158;-65
2022/08/19 08:33:49;;;;;;;19.65;15.35;;;20.70;99.90;;;;;;5098821;28;20056;-65
2022/08/19 08:36:16;;;;;;;17.30;13.77;;;20.80;99.90;;;;;;5089516;28;20071;-65
2022/08/19 08:38:45;;;;;;;18.58;15.02;;;20.90;99.90;;;;;;5087067;28;20507;-65
2022/08/19 08:41:31;;;;;;;17.35;15.07;;;20.80;99.90;;;;;;5077163;28;20090;-66
2022/08/19 08:43:57;;;;;;;18.45;14.63;;;20.80;99.90;;;;;;5096272;28;21038;-66
2022/08/19 08:46:41;;;;;;;19.33;14.82;;;20.90;99.90;;;;;;5089005;28;20062;-65
2022/08/19 08:49:26;;;;;;;18.27;14.57;;;20.80;99.90;;;;;;5095541;28;20044;-66
2022/08/19 08:52:03;;;;;;;20.40;15.55;;;21.00;99.90;;;;;;5057924;28;20055;-65
2022/08/19 08:54:34;;;;;;;15.02;13.38;;;21.00;99.90;;;;;;5093530;28;20044;-64
2022/08/19 08:57:03;;;;;;;16.83;13.23;;;21.10;99.90;;;;;;5071024;28;20496;-66
2022/08/19 08:59:36;;;;;;;17.25;13.88;;;21.20;99.90;;;;;;5096961;28;20044;-65
2022/08/19 09:02:02;;;;;;;14.75;11.85;;;21.30;99.90;;;;;;5088170;28;20044;-65
2022/08/19 09:04:28;;;;;;;14.98;10.07;;;21.40;99.90;;;;;;5097016;28;20044;-65
2022/08/19 09:07:32;;;;;;;14.40;7.75;;;21.40;99.90;;;;;;5075780;28;20107;-65
2022/08/19 09:10:10;;;;;;;7.90;6.43;;;21.60;99.90;;;;;;5089020;28;20124;-65
2022/08/19 09:12:56;;;;;;;13.10;8.82;;;21.80;99.90;;;;;;5106645;28;20060;-65
2022/08/19 09:15:46;;;;;;;10.07;6.85;;;22.00;99.90;;;;;;5081927;28;20056;-65
2022/08/19 09:18:12;;;;;;;8.80;5.40;;;22.00;99.90;;;;;;5084905;28;20064;-65
2022/08/19 09:20:37;;;;;;;7.85;6.53;;;22.10;99.90;;;;;;5091130;28;20242;-65
2022/08/19 09:23:03;;;;;;;8.77;6.55;;;22.10;99.90;;;;;;5097715;28;20075;-65
2022/08/19 09:25:32;;;;;;;8.35;5.50;;;22.20;99.90;;;;;;5095387;28;20075;-65
2022/08/19 09:28:01;;;;;;;9.18;7.68;;;22.30;99.90;;;;;;5096668;28;20052;-65
2022/08/19 09:30:31;;;;;;;12.88;9.23;;;22.30;99.90;;;;;;5093115;28;20079;-64
2022/08/19 09:32:57;;;;;;;;;;;22.20;99.90;;;;;;5107048;28;20069;-65
2022/08/19 09:35:25;;;;;;;13.05;9.80;;;22.30;99.90;;;;;;5084225;28;19928;-66
2022/08/19 09:37:51;;;;;;;13.35;10.38;;;22.40;99.90;;;;;;5089444;28;20055;-66
2022/08/19 09:40:18;;;;;;;23.38;12.57;;;22.40;99.90;;;;;;5088929;28;20048;-66
2022/08/19 09:42:47;;;;;;;13.02;10.23;;;22.60;99.90;;;;;;5111185;28;20071;-66
2022/08/19 09:45:17;;;;;;;15.20;11.07;;;22.60;99.90;;;;;;5086948;28;20291;-66
2022/08/19 09:47:43;;;;;;;13.50;10.73;;;22.60;99.90;;;;;;5080790;28;20052;-66
2022/08/19 09:50:11;;;;;;;13.27;10.57;;;22.60;99.90;;;;;;5082410;28;20048;-67
2022/08/19 09:52:37;;;;;;;13.25;10.90;;;22.60;99.90;;;;;;5095093;28;20108;-66
2022/08/19 09:55:08;;;;;;;14.13;12.50;;;22.70;99.90;;;;;;5086933;28;20499;-66
2022/08/19 09:57:34;;;;;;;14.13;12.60;;;22.80;99.90;;;;;;5099143;28;20040;-66
2022/08/19 10:00:00;;;;;;;17.00;11.55;;;22.80;99.90;;;;;;5086046;28;20070;-66
2022/08/19 10:02:26;;;;;;;15.48;13.05;;;22.80;99.90;;;;;;5096997;28;20054;-66
2022/08/19 10:07:37;;;;;;;12.82;10.20;;;22.80;99.90;;;;;;5099002;28;20063;-66
2022/08/19 10:10:06;;;;;;;19.35;10.40;;;23.00;99.90;;;;;;5086525;28;20044;-66
2022/08/19 10:12:33;;;;;;;13.45;10.60;;;23.10;99.90;;;;;;5081325;28;20127;-66
2022/08/19 10:14:59;;;;;;;11.45;9.38;;;23.20;99.90;;;;;;5087106;28;20044;-66
2022/08/19 10:17:25;;;;;;;16.38;12.85;;;23.20;99.90;;;;;;5096233;28;20058;-66
2022/08/19 10:19:52;;;;;;;10.82;9.10;;;23.20;99.90;;;;;;5090633;28;20050;-66
2022/08/19 10:22:18;;;;;;;12.90;10.35;;;23.20;99.90;;;;;;5079842;28;20056;-66
2022/08/19 10:24:45;;;;;;;12.05;10.18;;;23.40;99.90;;;;;;5093903;28;20120;-66
2022/08/19 10:27:12;;;;;;;9.35;8.10;;;23.50;99.90;;;;;;5072208;28;20048;-66
2022/08/19 10:29:38;;;;;;;11.82;8.45;;;23.50;99.90;;;;;;5099882;28;20062;-66
2022/08/19 10:32:07;;;;;;;14.30;10.30;;;23.50;99.90;;;;;;5073736;28;20150;-66
2022/08/19 10:34:35;;;;;;;11.55;8.38;;;23.60;99.90;;;;;;5097371;28;20450;-66
2022/08/19 10:37:02;;;;;;;12.60;9.77;;;23.60;99.90;;;;;;5070956;28;20048;-66
2022/08/19 10:39:29;;;;;;;12.73;10.88;;;23.70;99.90;;;;;;5085663;28;20082;-66
2022/08/19 10:41:56;;;;;;;9.73;7.97;;;23.70;99.90;;;;;;5085632;28;20047;-66
2022/08/19 10:44:23;;;;;;;11.07;9.82;;;23.80;99.90;;;;;;5094330;28;20071;-66
2022/08/19 10:46:49;;;;;;;14.07;10.63;;;24.00;99.90;;;;;;5066492;28;20052;-66
2022/08/19 10:49:15;;;;;;;10.90;9.57;;;24.10;99.90;;;;;;5093875;28;20040;-66
2022/08/19 10:56:50;;;;;;;12.77;11.48;;;24.40;99.90;;;;;;5091958;28;20047;-65
2022/08/19 10:57:13;;;;;;;17.73;11.35;;;24.50;99.90;;;;;;5086685;28;20042;-66
2022/08/19 10:59:39;;;;;;;15.65;11.77;;;24.60;99.90;;;;;;5094176;28;20484;-66
2022/08/19 11:02:09;;;;;;;18.10;14.15;;;24.60;99.90;;;;;;5085125;28;20831;-65
2022/08/19 11:04:36;;;;;;;16.48;12.40;;;24.60;99.90;;;;;;5075958;28;20055;-66
2022/08/19 11:07:04;;;;;;;12.77;11.27;;;24.60;99.90;;;;;;5087884;28;20549;-65
2022/08/19 11:09:30;;;;;;;11.52;9.95;;;24.40;99.90;;;;;;5097929;28;20134;-65
2022/08/19 11:11:56;;;;;;;13.98;11.73;;;24.50;99.90;;;;;;5086107;28;20112;-66
2022/08/19 11:14:25;;;;;;;12.05;10.25;;;24.60;99.90;;;;;;5098515;28;20047;-67
2022/08/19 11:16:53;;;;;;;17.08;13.07;;;24.60;99.90;;;;;;5073760;28;20048;-66
2022/08/19 11:19:19;;;;;;;13.52;12.00;;;24.90;99.90;;;;;;5092364;28;20055;-66
2022/08/19 11:21:48;;;;;;;11.35;10.15;;;25.10;99.90;;;;;;5085177;28;20052;-66
2022/08/19 11:24:17;;;;;;;14.60;11.40;;;25.20;99.90;;;;;;5095391;28;20047;-66
2022/08/19 11:26:43;;;;;;;;;;;25.40;99.90;;;;;;5074901;28;20048;-66
2022/08/19 11:29:12;;;;;;;13.23;10.70;;;25.50;99.90;;;;;;5095432;28;19924;-66
2022/08/19 11:31:41;;;;;;;11.68;10.48;;;25.70;99.90;;;;;;5084811;28;20048;-66
2022/08/19 11:34:11;;;;;;;13.70;9.60;;;25.70;99.90;;;;;;5095639;28;20068;-65
2022/08/19 11:36:39;;;;;;;11.75;10.13;;;25.80;99.90;;;;;;5084217;28;20044;-65
2022/08/19 11:39:06;;;;;;;15.90;12.07;;;25.70;99.90;;;;;;5080038;28;20056;-65
2022/08/19 11:41:32;;;;;;;14.52;12.00;;;25.50;99.90;;;;;;5086910;28;20036;-66
2022/08/19 11:43:58;;;;;;;11.85;10.45;;;25.60;99.90;;;;;;5097386;28;20105;-66
2022/08/19 11:46:25;;;;;;;11.45;10.23;;;25.50;99.90;;;;;;5077344;28;20062;-66
2022/08/19 11:48:51;;;;;;;12.82;10.05;;;25.50;99.90;;;;;;5094261;28;20395;-66
2022/08/19 11:51:21;;;;;;;10.60;9.32;;;25.60;99.90;;;;;;5084455;28;20562;-66
2022/08/19 11:53:49;;;;;;;13.55;10.85;;;25.60;99.90;;;;;;5092002;28;20051;-66
2022/08/19 11:56:14;;;;;;;11.88;10.43;;;25.60;99.90;;;;;;5086924;28;20622;-66
2022/08/19 11:58:43;;;;;;;11.40;9.55;;;25.40;99.90;;;;;;5096566;28;20072;-66
2022/08/19 12:01:11;;;;;;;11.13;9.70;;;25.60;99.90;;;;;;5087645;28;20045;-66
2022/08/19 12:03:37;;;;;;;12.32;11.13;;;25.70;99.90;;;;;;5094025;28;20056;-65
2022/08/19 12:06:09;;;;;;;11.25;9.52;;;25.90;99.90;;;;;;5081868;28;20048;-65
2022/08/19 12:08:35;;;;;;;10.27;9.02;;;25.90;99.90;;;;;;5103153;28;20415;-65
2022/08/19 12:11:01;;;;;;;11.60;8.60;;;26.10;99.90;;;;;;5086045;28;20051;-66
2022/08/19 12:13:28;;;;;;;11.32;9.65;;;26.30;99.90;;;;;;5083043;28;20032;-66
2022/08/19 12:15:54;;;;;;;13.55;9.52;;;26.40;99.90;;;;;;5079939;28;20639;-66
2022/08/19 12:18:19;;;;;;;10.02;9.02;;;26.40;99.90;;;;;;5091367;28;20076;-65
2022/08/19 12:20:47;;;;;;;10.25;8.32;;;26.50;99.90;;;;;;5085966;28;20059;-66
2022/08/19 12:23:13;;;;;;;10.32;8.75;;;26.60;99.90;;;;;;5080760;28;20056;-65
2022/08/19 12:25:49;;;;;;;10.75;8.13;;;26.60;99.90;;;;;;5084313;28;20180;-66
2022/08/19 12:28:22;;;;;;;12.93;8.93;;;26.70;99.90;;;;;;5078589;28;20052;-65
2022/08/19 12:30:52;;;;;;;12.70;9.80;;;26.50;99.90;;;;;;5078196;28;20063;-66
2022/08/19 12:33:23;;;;;;;10.95;9.80;;;26.50;99.90;;;;;;5091692;28;20055;-66
2022/08/19 12:35:50;;;;;;;13.07;9.90;;;26.60;99.90;;;;;;5083056;28;20043;-65
2022/08/19 12:38:16;;;;;;;11.32;9.35;;;26.80;99.90;;;;;;5099574;28;20071;-66
2022/08/19 12:40:46;;;;;;;14.52;10.50;;;26.90;99.90;;;;;;5087702;28;20055;-66
2022/08/19 12:43:15;;;;;;;9.18;8.27;;;26.80;99.90;;;;;;5096472;28;20063;-65
2022/08/19 12:45:42;;;;;;;10.20;9.10;;;26.70;99.90;;;;;;5084834;28;20237;-66
2022/08/19 12:48:08;;;;;;;9.63;8.63;;;26.50;99.90;;;;;;5093951;28;20032;-66
2022/08/19 12:50:34;;;;;;;13.27;11.88;;;26.50;99.90;;;;;;5072103;28;21125;-66
2022/08/19 12:53:00;;;;;;;11.27;9.38;;;26.70;99.90;;;;;;5074097;28;20336;-66
2022/08/19 12:55:27;;;;;;;14.05;10.15;;;26.90;99.90;;;;;;5077506;28;20063;-66
2022/08/19 12:57:54;;;;;;;11.50;8.02;;;27.30;99.90;;;;;;5067370;28;20060;-66